createdAt,value
2023-06-19T00:00:24.733Z,100951.88
2023-06-19T00:02:54.004Z,100945.47
2023-06-19T00:05:24.866Z,100946.31
2023-06-19T00:07:53.273Z,100941.88
2023-06-19T00:10:22.347Z,100948.84
2023-06-19T00:12:51.077Z,100958.50
2023-06-19T00:15:19.962Z,100959.31
2023-06-19T00:17:48.606Z,100958.78
2023-06-19T00:20:17.163Z,100959.19
2023-06-19T00:22:53.041Z,100958.66
2023-06-19T00:25:21.949Z,100966.63
2023-06-19T00:27:52.984Z,100956.56
2023-06-19T00:30:21.850Z,100957.53
2023-06-19T00:32:51.680Z,100956.69
2023-06-19T00:35:20.392Z,100953.41
2023-06-19T00:37:51.305Z,100957.41
2023-06-19T00:40:28.911Z,100952.47
2023-06-19T00:42:57.934Z,100957.81
2023-06-19T00:45:29.487Z,100959.81
2023-06-19T00:48:00.762Z,100956.22
2023-06-19T00:50:32.606Z,100963.94
2023-06-19T00:53:05.945Z,100960.16
2023-06-19T00:55:35.866Z,100959.53
2023-06-19T00:58:05.202Z,100961.31
2023-06-19T01:00:33.870Z,100959.56
2023-06-19T01:03:02.561Z,100961.28
2023-06-19T01:05:31.376Z,100963.69
2023-06-19T01:08:06.539Z,100968.72
2023-06-19T01:10:41.036Z,100971.56
2023-06-19T01:13:13.827Z,100973.28
2023-06-19T01:15:45.257Z,100964.09
2023-06-19T01:18:14.707Z,100962.28
2023-06-19T01:20:45.228Z,100967.16
2023-06-19T01:23:15.319Z,100976.19
2023-06-19T01:25:43.888Z,100972.88
2023-06-19T01:28:15.035Z,100963.19
2023-06-19T01:30:44.683Z,100977.97
2023-06-19T01:33:18.848Z,100976.84
2023-06-19T01:35:49.445Z,100970.75
2023-06-19T01:38:20.742Z,100980.56
2023-06-19T01:40:51.064Z,100976.78
2023-06-19T01:43:21.032Z,100977.56
2023-06-19T01:45:49.972Z,100969.06
2023-06-19T01:48:18.502Z,100975.03
2023-06-19T01:50:48.357Z,100979.88
2023-06-19T01:53:20.556Z,100983.47
2023-06-19T01:55:49.153Z,100980.91
2023-06-19T01:58:19.474Z,100975.94
2023-06-19T02:00:48.430Z,100982.19
2023-06-19T02:03:17.109Z,100976.41
2023-06-19T02:05:45.853Z,100974.72
2023-06-19T02:08:14.401Z,100976.31
2023-06-19T02:10:45.760Z,100972.03
2023-06-19T02:13:14.465Z,100970.16
2023-06-19T02:15:43.035Z,100973.81
2023-06-19T02:18:11.673Z,100979.91
2023-06-19T02:20:40.421Z,100970.94
2023-06-19T02:23:08.978Z,100969.13
2023-06-19T02:25:37.391Z,100969.34
2023-06-19T02:28:10.519Z,100963.06
2023-06-19T02:30:39.233Z,100962.47
2023-06-19T02:33:07.790Z,100953.75
2023-06-19T02:35:36.365Z,100962.22
2023-06-19T02:38:05.881Z,100959.34
2023-06-19T02:40:35.079Z,100960.50
2023-06-19T02:43:03.605Z,100953.63
2023-06-19T02:45:33.716Z,100956.88
2023-06-19T02:48:02.342Z,100963.53
2023-06-19T02:50:31.022Z,100959.09
2023-06-19T02:52:59.629Z,100953.88
2023-06-19T02:55:28.394Z,100953.34
2023-06-19T02:57:58.860Z,100950.63
2023-06-19T03:00:30.030Z,100954.78
2023-06-19T03:03:01.221Z,100959.50
2023-06-19T03:05:30.017Z,100944.91
2023-06-19T03:07:58.767Z,100942.44
2023-06-19T03:10:27.750Z,100945.34
2023-06-19T03:12:56.571Z,100946.28
2023-06-19T03:15:25.262Z,100948.81
2023-06-19T03:17:55.142Z,100948.28
2023-06-19T03:20:27.507Z,100942.81
2023-06-19T03:22:59.452Z,100948.41
2023-06-19T03:25:34.932Z,100947.63
2023-06-19T03:28:06.921Z,100938.41
2023-06-19T03:30:36.890Z,100940.50
2023-06-19T03:33:05.683Z,100929.63
2023-06-19T03:35:43.395Z,100926.50
2023-06-19T03:38:19.595Z,100922.00
2023-06-19T03:40:49.332Z,100919.44
2023-06-19T03:43:18.389Z,100917.03
2023-06-19T03:45:47.681Z,100918.72
2023-06-19T03:48:16.349Z,100914.56
2023-06-19T03:50:46.453Z,100920.41
2023-06-19T03:53:15.328Z,100926.69
2023-06-19T03:55:43.928Z,100920.84
2023-06-19T03:58:14.146Z,100926.44
2023-06-19T04:00:44.283Z,100929.34
2023-06-19T04:03:14.215Z,100933.50
2023-06-19T04:05:43.544Z,100938.66
2023-06-19T04:08:15.790Z,100932.16
2023-06-19T04:10:45.889Z,100934.31
2023-06-19T04:13:15.004Z,100932.03
2023-06-19T04:15:46.963Z,100932.09
2023-06-19T04:18:17.189Z,100935.41
2023-06-19T04:20:46.055Z,100938.28
2023-06-19T04:23:16.860Z,100942.69
2023-06-19T04:25:45.423Z,100943.16
2023-06-19T04:28:14.043Z,100941.59
2023-06-19T04:30:42.663Z,100938.94
2023-06-19T04:33:11.437Z,100943.75
2023-06-19T04:35:41.579Z,100934.84
2023-06-19T04:38:10.831Z,100942.13
2023-06-19T04:40:40.928Z,100946.53
2023-06-19T04:43:09.543Z,100948.19
2023-06-19T04:45:38.168Z,100949.66
2023-06-19T04:48:07.257Z,100951.16
2023-06-19T04:50:35.963Z,100948.84
2023-06-19T04:53:04.711Z,100959.50
2023-06-19T04:55:33.393Z,100959.63
2023-06-19T04:58:03.726Z,100957.88
2023-06-19T05:00:32.261Z,100961.31
2023-06-19T05:03:01.797Z,100959.81
2023-06-19T05:05:31.034Z,100965.59
2023-06-19T05:07:59.628Z,100959.63
2023-06-19T05:10:28.289Z,100959.81
2023-06-19T05:12:56.825Z,100959.97
2023-06-19T05:15:26.977Z,100967.81
2023-06-19T05:17:55.786Z,100971.31
2023-06-19T05:20:24.748Z,100959.25
2023-06-19T05:22:53.669Z,100968.19
2023-06-19T05:25:22.495Z,100962.16
2023-06-19T05:27:51.160Z,100962.22
2023-06-19T05:30:19.921Z,100967.03
2023-06-19T05:32:50.048Z,100969.78
2023-06-19T05:35:18.892Z,100963.34
2023-06-19T05:37:47.869Z,100966.09
2023-06-19T05:40:16.552Z,100970.53
2023-06-19T05:42:45.196Z,100962.75
2023-06-19T05:45:13.993Z,100969.81
2023-06-19T05:47:42.795Z,100971.06
2023-06-19T05:50:13.239Z,100979.41
2023-06-19T05:52:44.473Z,100979.47
2023-06-19T05:55:13.685Z,100975.47
2023-06-19T05:57:42.336Z,100975.09
2023-06-19T06:00:15.456Z,100977.19
2023-06-19T06:02:44.108Z,100982.72
2023-06-19T06:05:14.379Z,100983.56
2023-06-19T06:07:42.877Z,100982.28
2023-06-19T06:10:12.173Z,100975.59
2023-06-19T06:12:40.810Z,100968.84
2023-06-19T06:15:10.263Z,100970.75
2023-06-19T06:17:38.995Z,100970.50
2023-06-19T06:20:12.641Z,100968.38
2023-06-19T06:22:42.918Z,100961.41
2023-06-19T06:25:13.849Z,100961.19
2023-06-19T06:27:43.373Z,100958.16
2023-06-19T06:30:14.115Z,100959.78
2023-06-19T06:32:42.944Z,100962.88
2023-06-19T06:35:11.832Z,100956.13
2023-06-19T06:37:40.894Z,100956.25
2023-06-19T06:40:14.467Z,100958.50
2023-06-19T06:42:43.197Z,100956.78
2023-06-19T06:45:12.415Z,100958.69
2023-06-19T06:47:41.447Z,100951.03
2023-06-19T06:50:11.683Z,100953.53
2023-06-19T06:52:40.392Z,100954.72
2023-06-19T06:55:11.450Z,100948.47
2023-06-19T06:57:39.777Z,100950.78
2023-06-19T07:00:12.721Z,100949.41
2023-06-19T07:02:42.540Z,100959.53
2023-06-19T07:05:12.253Z,100944.69
2023-06-19T07:07:40.942Z,100946.56
2023-06-19T07:10:11.902Z,100941.84
2023-06-19T07:12:47.831Z,100946.59
2023-06-19T07:15:16.716Z,100942.38
2023-06-19T07:17:46.612Z,100949.06
2023-06-19T07:20:15.407Z,100939.97
2023-06-19T07:22:44.808Z,100945.94
2023-06-19T07:25:16.353Z,100946.34
2023-06-19T07:27:45.703Z,100946.72
2023-06-19T07:30:16.866Z,100953.38
2023-06-19T07:32:46.285Z,100950.69
2023-06-19T07:35:15.101Z,100951.81
2023-06-19T07:37:44.009Z,100950.44
2023-06-19T07:40:15.105Z,100944.94
2023-06-19T07:42:44.826Z,100950.09
2023-06-19T07:45:15.189Z,100944.16
2023-06-19T07:47:44.265Z,100948.91
2023-06-19T07:50:12.946Z,100951.88
2023-06-19T07:52:41.619Z,100950.09
2023-06-19T07:55:11.084Z,100948.63
2023-06-19T07:57:41.302Z,100951.38
2023-06-19T08:00:12.940Z,100945.16
2023-06-19T08:02:42.056Z,100952.22
2023-06-19T08:05:11.906Z,100938.22
2023-06-19T08:07:40.713Z,100955.63
2023-06-19T08:10:13.963Z,100951.91
2023-06-19T08:12:46.649Z,100952.63
2023-06-19T08:15:15.873Z,100947.56
2023-06-19T08:17:45.127Z,100947.91
2023-06-19T08:20:13.983Z,100960.28
2023-06-19T08:22:42.609Z,100958.69
2023-06-19T08:25:11.797Z,100947.47
2023-06-19T08:27:40.607Z,100946.91
2023-06-19T08:30:11.426Z,100950.72
2023-06-19T08:32:40.138Z,100952.88
2023-06-19T08:35:09.307Z,100957.56
2023-06-19T08:37:37.936Z,100950.09
2023-06-19T08:40:10.714Z,100949.94
2023-06-19T08:42:40.399Z,100951.13
2023-06-19T08:45:11.931Z,100947.69
2023-06-19T08:47:43.138Z,100952.75
2023-06-19T08:50:12.304Z,100956.25
2023-06-19T08:52:40.807Z,100949.50
2023-06-19T08:55:11.747Z,100949.50
2023-06-19T08:57:41.746Z,100956.25
2023-06-19T09:00:12.506Z,100957.94
2023-06-19T09:02:52.502Z,100953.59
2023-06-19T09:05:29.581Z,100956.84
2023-06-19T09:08:02.104Z,100951.75
2023-06-19T09:10:34.128Z,100948.16
2023-06-19T09:13:04.175Z,100958.13
2023-06-19T09:15:36.616Z,100957.88
2023-06-19T09:18:07.015Z,100955.16
2023-06-19T09:20:37.416Z,100941.81
2023-06-19T09:23:05.696Z,100946.22
2023-06-19T09:25:34.206Z,100938.19
2023-06-19T09:28:05.124Z,100937.56
2023-06-19T09:30:35.196Z,100928.44
2023-06-19T09:33:09.580Z,100940.06
2023-06-19T09:35:38.343Z,100936.88
2023-06-19T09:38:07.750Z,100934.31
2023-06-19T09:40:36.986Z,100935.06
2023-06-19T09:43:07.344Z,100934.00
2023-06-19T09:45:37.295Z,100938.25
2023-06-19T09:48:07.525Z,100928.72
2023-06-19T09:51:14.785Z,100937.13
2023-06-19T09:53:45.569Z,100937.47
2023-06-19T09:56:15.127Z,100928.22
2023-06-19T09:58:45.604Z,100939.25
2023-06-19T10:01:17.646Z,100933.84
2023-06-19T10:03:46.353Z,100934.88
2023-06-19T10:06:17.824Z,100927.06
2023-06-19T10:08:47.833Z,100933.22
2023-06-19T10:11:16.705Z,100927.28
2023-06-19T10:13:45.643Z,100926.72
2023-06-19T10:16:24.073Z,100932.25
2023-06-19T10:18:53.323Z,100919.19
2023-06-19T10:21:22.708Z,100931.25
2023-06-19T10:23:58.841Z,100931.53
2023-06-19T10:26:34.884Z,100935.28
2023-06-19T10:29:05.681Z,100924.13
2023-06-19T10:31:35.669Z,100924.91
2023-06-19T10:34:06.037Z,100917.53
2023-06-19T10:36:34.704Z,100919.34
2023-06-19T10:39:03.595Z,100913.09
2023-06-19T10:41:33.244Z,100919.28
2023-06-19T10:44:05.335Z,100910.56
2023-06-19T10:46:38.035Z,100922.53
2023-06-19T10:49:08.707Z,100916.34
2023-06-19T10:51:38.513Z,100907.97
2023-06-19T10:54:07.540Z,100909.09
2023-06-19T10:56:36.768Z,100913.72
2023-06-19T10:59:07.875Z,100908.66
2023-06-19T11:01:39.571Z,100910.56
2023-06-19T11:04:09.726Z,100908.28
2023-06-19T11:06:39.065Z,100905.69
2023-06-19T11:09:09.431Z,100906.03
2023-06-19T11:11:39.740Z,100898.13
2023-06-19T11:14:08.777Z,100892.25
2023-06-19T11:16:41.486Z,100896.16
2023-06-19T11:19:10.847Z,100894.50
2023-06-19T11:21:40.509Z,100893.00
2023-06-19T11:24:14.688Z,100891.91
2023-06-19T11:26:50.676Z,100898.13
2023-06-19T11:29:21.751Z,100884.16
2023-06-19T11:31:52.450Z,100890.72
2023-06-19T11:34:24.492Z,100890.28
2023-06-19T11:36:56.113Z,100883.59
2023-06-19T11:39:24.789Z,100889.28
2023-06-19T11:41:55.060Z,100890.16
2023-06-19T11:44:24.385Z,100882.59
2023-06-19T11:47:00.161Z,100877.56
2023-06-19T11:49:29.591Z,100878.78
2023-06-19T11:51:58.588Z,100875.13
2023-06-19T11:54:27.494Z,100870.28
2023-06-19T11:56:56.072Z,100864.13
2023-06-19T11:59:24.687Z,100867.25
2023-06-19T12:01:54.706Z,100862.09
2023-06-19T12:04:23.564Z,100854.41
2023-06-19T12:06:52.330Z,100848.44
2023-06-19T12:09:21.026Z,100855.22
2023-06-19T12:11:49.552Z,100856.44
2023-06-19T12:14:19.431Z,100850.66
2023-06-19T12:16:48.489Z,100846.59
2023-06-19T12:19:21.305Z,100849.38
2023-06-19T12:21:50.176Z,100852.34
2023-06-19T12:24:18.676Z,100852.19
2023-06-19T12:26:47.274Z,100834.91
2023-06-19T12:29:15.865Z,100832.66
2023-06-19T12:31:46.328Z,100838.75
2023-06-19T12:36:51.406Z,100830.41
2023-06-19T12:39:20.925Z,100834.25
2023-06-19T12:41:49.484Z,100843.22
2023-06-19T12:44:18.524Z,100829.94
2023-06-19T12:46:47.187Z,100833.25
2023-06-19T12:49:15.871Z,100825.88
2023-06-19T12:51:44.379Z,100821.94
2023-06-19T12:54:14.461Z,100818.00
2023-06-19T12:56:43.166Z,100811.44
2023-06-19T12:59:11.749Z,100814.78
2023-06-19T13:01:40.368Z,100803.63
2023-06-19T13:04:09.046Z,100801.03
2023-06-19T13:06:38.961Z,100801.06
2023-06-19T13:09:08.683Z,100795.84
2023-06-19T13:11:38.903Z,100785.03
2023-06-19T13:14:07.553Z,100786.44
2023-06-19T13:16:46.125Z,100785.44
2023-06-19T13:19:16.522Z,100778.06
2023-06-19T13:21:45.796Z,100768.69
2023-06-19T13:24:14.520Z,100765.78
2023-06-19T13:26:46.160Z,100760.44
2023-06-19T13:29:15.018Z,100761.16
2023-06-19T13:31:43.754Z,100761.16
2023-06-19T13:34:12.330Z,100761.56
2023-06-19T13:36:41.234Z,100752.41
2023-06-19T13:39:10.234Z,100760.66
2023-06-19T13:41:38.922Z,100754.59
2023-06-19T13:44:09.208Z,100753.44
2023-06-19T13:46:37.479Z,100758.50
2023-06-19T13:49:06.127Z,100757.25
2023-06-19T13:51:35.176Z,100754.25
2023-06-19T13:54:04.595Z,100752.88
2023-06-19T13:56:33.631Z,100757.84
2023-06-19T13:59:02.323Z,100747.78
2023-06-19T14:01:33.186Z,100749.84
2023-06-19T14:04:01.992Z,100752.25
2023-06-19T14:06:31.671Z,100749.50
2023-06-19T14:09:00.304Z,100759.34
2023-06-19T14:11:30.400Z,100758.63
2023-06-19T14:13:59.120Z,100756.19
2023-06-19T14:16:27.774Z,100758.63
2023-06-19T14:18:57.954Z,100760.34
2023-06-19T14:21:27.074Z,100762.75
2023-06-19T14:23:55.686Z,100761.28
2023-06-19T14:26:24.422Z,100765.19
2023-06-19T14:28:56.697Z,100755.50
2023-06-19T14:31:25.819Z,100766.22
2023-06-19T14:33:54.462Z,100763.47
2023-06-19T14:36:24.633Z,100751.63
2023-06-19T14:38:53.126Z,100759.47
2023-06-19T14:41:21.848Z,100762.16
2023-06-19T14:43:50.424Z,100760.88
2023-06-19T14:46:33.718Z,100757.75
2023-06-19T14:49:06.747Z,100760.03
2023-06-19T14:51:36.855Z,100765.56
2023-06-19T14:54:05.613Z,100766.06
2023-06-19T14:56:34.483Z,100771.50
2023-06-19T14:59:03.061Z,100765.25
2023-06-19T15:01:31.792Z,100770.41
2023-06-19T15:04:00.598Z,100768.41
2023-06-19T15:06:29.212Z,100760.81
2023-06-19T15:09:01.245Z,100759.81
2023-06-19T15:11:31.649Z,100765.91
2023-06-19T15:14:00.257Z,100758.09
2023-06-19T15:16:28.968Z,100752.03
2023-06-19T15:18:57.548Z,100755.56
2023-06-19T15:21:26.328Z,100749.91
2023-06-19T15:23:57.300Z,100737.72
2023-06-19T15:26:27.532Z,100751.28
2023-06-19T15:28:56.160Z,100749.50
2023-06-19T15:31:25.753Z,100742.91
2023-06-19T15:33:57.372Z,100757.97
2023-06-19T15:36:25.991Z,100748.38
2023-06-19T15:38:54.612Z,100747.44
2023-06-19T15:41:23.300Z,100750.56
2023-06-19T15:43:53.345Z,100740.00
2023-06-19T15:46:22.093Z,100749.69
2023-06-19T15:48:51.861Z,100739.97
2023-06-19T15:51:20.523Z,100743.03
2023-06-19T15:53:49.221Z,100740.50
2023-06-19T15:56:17.944Z,100740.19
2023-06-19T15:58:46.529Z,100749.31
2023-06-19T16:01:16.737Z,100750.88
2023-06-19T16:03:45.406Z,100741.13
2023-06-19T16:06:14.061Z,100735.38
2023-06-19T16:08:42.823Z,100747.03
2023-06-19T16:11:12.744Z,100747.63
2023-06-19T16:13:41.256Z,100745.09
2023-06-19T16:16:10.099Z,100746.06
2023-06-19T16:18:40.152Z,100756.16
2023-06-19T16:21:08.985Z,100758.63
2023-06-19T16:23:37.772Z,100753.59
2023-06-19T16:26:06.358Z,100759.78
2023-06-19T16:28:34.922Z,100757.50
2023-06-19T16:31:03.846Z,100770.00
2023-06-19T16:33:32.591Z,100765.56
2023-06-19T16:36:02.736Z,100770.34
2023-06-19T16:38:31.405Z,100760.75
2023-06-19T16:41:00.347Z,100766.22
2023-06-19T16:43:28.877Z,100769.00
2023-06-19T16:45:57.526Z,100760.56
2023-06-19T16:48:26.215Z,100767.59
2023-06-19T16:50:54.728Z,100773.97
2023-06-19T16:53:25.040Z,100780.31
2023-06-19T16:55:57.167Z,100774.22
2023-06-19T16:58:25.828Z,100779.66
2023-06-19T17:00:55.215Z,100778.31
2023-06-19T17:03:25.134Z,100774.38
2023-06-19T17:05:53.772Z,100771.09
2023-06-19T17:08:22.507Z,100775.94
2023-06-19T17:10:52.525Z,100782.69
2023-06-19T17:13:21.520Z,100785.06
2023-06-19T17:15:50.164Z,100779.72
2023-06-19T17:18:18.870Z,100780.56
2023-06-19T17:20:47.489Z,100774.00
2023-06-19T17:23:16.182Z,100781.09
2023-06-19T17:25:46.870Z,100778.88
2023-06-19T17:28:16.973Z,100780.19
2023-06-19T17:30:45.681Z,100779.50
2023-06-19T17:33:15.378Z,100779.38
2023-06-19T17:35:44.110Z,100776.06
2023-06-19T17:38:12.852Z,100782.28
2023-06-19T17:40:42.157Z,100774.84
2023-06-19T17:43:10.932Z,100773.53
2023-06-19T17:45:40.917Z,100777.84
2023-06-19T17:48:09.550Z,100783.50
2023-06-19T17:50:38.137Z,100789.84
2023-06-19T17:53:06.767Z,100791.53
2023-06-19T17:55:35.298Z,100791.28
2023-06-19T17:58:03.906Z,100793.06
2023-06-19T18:00:32.496Z,100793.19
2023-06-19T18:03:03.457Z,100794.97
2023-06-19T18:05:32.202Z,100804.81
2023-06-19T18:08:00.781Z,100805.97
2023-06-19T18:10:29.514Z,100806.13
2023-06-19T18:12:59.295Z,100807.97
2023-06-19T18:15:27.932Z,100810.47
2023-06-19T18:17:56.492Z,100805.59
2023-06-19T18:20:27.204Z,100806.38
2023-06-19T18:22:56.270Z,100811.25
2023-06-19T18:25:24.757Z,100808.25
2023-06-19T18:27:53.428Z,100816.50
2023-06-19T18:30:22.248Z,100814.31
2023-06-19T18:32:51.187Z,100823.16
2023-06-19T18:35:19.744Z,100822.09
2023-06-19T18:37:50.286Z,100822.53
2023-06-19T18:40:18.987Z,100820.25
2023-06-19T18:42:47.512Z,100820.88
2023-06-19T18:45:16.394Z,100826.97
2023-06-19T18:47:45.110Z,100833.06
2023-06-19T18:50:15.471Z,100833.47
2023-06-19T18:52:44.140Z,100840.75
2023-06-19T18:55:14.403Z,100849.72
2023-06-19T18:57:43.049Z,100851.16
2023-06-19T19:00:12.631Z,100853.13
2023-06-19T19:02:42.165Z,100845.91
2023-06-19T19:05:11.309Z,100848.47
2023-06-19T19:07:40.108Z,100846.81
2023-06-19T19:10:10.924Z,100851.44
2023-06-19T19:12:41.049Z,100841.09
2023-06-19T19:15:10.508Z,100853.09
2023-06-19T19:17:39.513Z,100857.41
2023-06-19T19:20:10.682Z,100847.84
2023-06-19T19:22:39.242Z,100847.03
2023-06-19T19:25:08.653Z,100844.94
2023-06-19T19:27:37.265Z,100845.34
2023-06-19T19:30:09.056Z,100850.16
2023-06-19T19:32:37.685Z,100851.53
2023-06-19T19:35:06.952Z,100851.97
2023-06-19T19:37:35.648Z,100848.78
2023-06-19T19:40:04.830Z,100848.78
2023-06-19T19:42:33.545Z,100851.31
2023-06-19T19:45:04.638Z,100855.94
2023-06-19T19:47:36.758Z,100855.72
2023-06-19T19:50:05.936Z,100859.03
2023-06-19T19:52:34.572Z,100848.22
2023-06-19T19:55:03.139Z,100853.47
2023-06-19T19:57:31.827Z,100849.84
2023-06-19T20:00:00.376Z,100845.88
2023-06-19T20:02:29.112Z,100850.06
2023-06-19T20:04:59.120Z,100841.81
2023-06-19T20:07:27.806Z,100848.53
2023-06-19T20:09:56.441Z,100849.00
2023-06-19T20:12:25.049Z,100850.97
2023-06-19T20:14:55.223Z,100849.53
2023-06-19T20:17:24.613Z,100853.94
2023-06-19T20:19:53.431Z,100857.94
2023-06-19T20:22:23.630Z,100853.75
2023-06-19T20:24:52.188Z,100855.63
2023-06-19T20:27:21.038Z,100852.69
2023-06-19T20:29:49.959Z,100851.38
2023-06-19T20:32:18.718Z,100854.16
2023-06-19T20:34:47.335Z,100859.38
2023-06-19T20:37:16.073Z,100861.84
2023-06-19T20:39:46.150Z,100850.50
2023-06-19T20:42:14.686Z,100858.97
2023-06-19T20:44:43.391Z,100857.69
2023-06-19T20:47:11.989Z,100856.41
2023-06-19T20:49:41.870Z,100856.19
2023-06-19T20:52:10.586Z,100861.50
2023-06-19T20:54:39.129Z,100860.75
2023-06-19T20:57:09.485Z,100861.59
2023-06-19T20:59:38.202Z,100853.97
2023-06-19T21:02:10.318Z,100862.53
2023-06-19T21:04:39.086Z,100854.47
2023-06-19T21:07:07.747Z,100849.16
2023-06-19T21:09:36.390Z,100853.53
2023-06-19T21:12:05.106Z,100853.59
2023-06-19T21:14:35.451Z,100858.13
2023-06-19T21:17:04.425Z,100855.28
2023-06-19T21:19:33.023Z,100857.84
2023-06-19T21:22:01.762Z,100858.03
2023-06-19T21:24:30.422Z,100868.75
2023-06-19T21:26:59.142Z,100867.53
2023-06-19T21:29:28.424Z,100864.38
2023-06-19T21:31:58.540Z,100871.03
2023-06-19T21:34:27.125Z,100864.31
2023-06-19T21:36:55.904Z,100874.06
2023-06-19T21:39:24.548Z,100868.63
2023-06-19T21:41:53.239Z,100871.63
2023-06-19T21:44:21.835Z,100860.97
2023-06-19T21:46:50.801Z,100869.16
2023-06-19T21:49:20.774Z,100872.78
2023-06-19T21:51:49.651Z,100873.31
2023-06-19T21:54:18.210Z,100869.16
2023-06-19T21:56:46.805Z,100868.03
2023-06-19T21:59:15.405Z,100868.88
2023-06-19T22:01:44.033Z,100878.56
2023-06-19T22:04:15.987Z,100876.50
2023-06-19T22:06:49.043Z,100879.69
2023-06-19T22:09:17.696Z,100876.69
2023-06-19T22:11:46.234Z,100881.53
2023-06-19T22:14:14.828Z,100886.09
2023-06-19T22:16:43.325Z,100881.88
2023-06-19T22:19:11.841Z,100877.56
2023-06-19T22:21:43.004Z,100888.97
2023-06-19T22:24:13.304Z,100880.50
2023-06-19T22:26:41.853Z,100882.97
2023-06-19T22:29:12.978Z,100890.63
2023-06-19T22:31:42.869Z,100884.19
2023-06-19T22:34:11.461Z,100893.59
2023-06-19T22:36:40.339Z,100883.78
2023-06-19T22:39:08.910Z,100888.91
2023-06-19T22:41:40.071Z,100884.81
2023-06-19T22:44:08.996Z,100893.31
2023-06-19T22:46:37.506Z,100890.09
2023-06-19T22:49:06.348Z,100884.47
2023-06-19T22:51:35.585Z,100885.53
2023-06-19T22:54:04.061Z,100894.69
2023-06-19T22:56:32.603Z,100891.28
2023-06-19T22:59:02.703Z,100889.97
2023-06-19T23:01:31.825Z,100889.63
2023-06-19T23:04:00.528Z,100885.91
2023-06-19T23:06:29.064Z,100880.31
2023-06-19T23:08:57.696Z,100883.53
2023-06-19T23:11:28.434Z,100888.63
2023-06-19T23:13:57.044Z,100897.44
2023-06-19T23:16:26.918Z,100889.31
2023-06-19T23:18:58.716Z,100884.88
2023-06-19T23:21:31.630Z,100888.78
2023-06-19T23:24:00.692Z,100887.09
2023-06-19T23:26:29.331Z,100897.78
2023-06-19T23:29:00.279Z,100892.34
2023-06-19T23:31:30.440Z,100896.72
2023-06-19T23:34:03.883Z,100888.25
2023-06-19T23:36:32.491Z,100894.03
2023-06-19T23:39:02.327Z,100887.56
2023-06-19T23:41:30.889Z,100901.47
2023-06-19T23:43:59.435Z,100904.00
2023-06-19T23:46:29.649Z,100902.63
2023-06-19T23:48:58.281Z,100899.88
2023-06-19T23:51:26.825Z,100899.97
2023-06-19T23:53:55.439Z,100902.34
2023-06-19T23:56:23.968Z,100908.88
2023-06-19T23:58:52.551Z,100907.91
